sensor_id;sensor_type;location;lat;lon;timestamp;P1;durP1;ratioP1;P2;durP2;ratioP2
13927;SDS011;7036;50.834;4.718;2022-07-06T00:02:26;2.17;;;0.87;;
13927;SDS011;7036;50.834;4.718;2022-07-06T00:04:53;0.70;;;0.60;;
13927;SDS011;7036;50.834;4.718;2022-07-06T00:07:20;1.73;;;0.70;;
13927;SDS011;7036;50.834;4.718;2022-07-06T00:09:47;2.20;;;1.20;;
13927;SDS011;7036;50.834;4.718;2022-07-06T00:12:14;1.93;;;0.93;;
13927;SDS011;7036;50.834;4.718;2022-07-06T00:14:41;1.13;;;0.70;;
13927;SDS011;7036;50.834;4.718;2022-07-06T00:17:08;0.70;;;0.70;;
13927;SDS011;7036;50.834;4.718;2022-07-06T00:19:34;1.00;;;0.90;;
13927;SDS011;7036;50.834;4.718;2022-07-06T00:22:02;1.93;;;1.00;;
13927;SDS011;7036;50.834;4.718;2022-07-06T00:24:28;1.20;;;0.80;;
13927;SDS011;7036;50.834;4.718;2022-07-06T00:26:55;0.70;;;0.60;;
13927;SDS011;7036;50.834;4.718;2022-07-06T00:29:22;1.63;;;1.00;;
13927;SDS011;7036;50.834;4.718;2022-07-06T00:31:49;1.20;;;0.90;;
13927;SDS011;7036;50.834;4.718;2022-07-06T00:34:16;0.80;;;0.80;;
13927;SDS011;7036;50.834;4.718;2022-07-06T00:36:43;1.30;;;0.90;;
13927;SDS011;7036;50.834;4.718;2022-07-06T00:39:10;1.67;;;0.80;;
13927;SDS011;7036;50.834;4.718;2022-07-06T00:41:37;2.00;;;0.73;;
13927;SDS011;7036;50.834;4.718;2022-07-06T00:44:06;3.10;;;0.90;;
13927;SDS011;7036;50.834;4.718;2022-07-06T00:46:31;0.90;;;0.80;;
13927;SDS011;7036;50.834;4.718;2022-07-06T00:48:58;1.30;;;0.80;;
13927;SDS011;7036;50.834;4.718;2022-07-06T00:51:26;1.80;;;0.63;;
13927;SDS011;7036;50.834;4.718;2022-07-06T00:53:52;4.30;;;0.90;;
13927;SDS011;7036;50.834;4.718;2022-07-06T00:56:18;4.13;;;0.90;;
13927;SDS011;7036;50.834;4.718;2022-07-06T00:58:45;1.17;;;0.90;;
13927;SDS011;7036;50.834;4.718;2022-07-06T01:01:12;1.03;;;0.70;;
13927;SDS011;7036;50.834;4.718;2022-07-06T01:03:39;0.87;;;0.67;;
13927;SDS011;7036;50.834;4.718;2022-07-06T01:06:06;0.90;;;0.80;;
13927;SDS011;7036;50.834;4.718;2022-07-06T01:08:33;2.03;;;0.70;;
13927;SDS011;7036;50.834;4.718;2022-07-06T01:11:00;1.33;;;0.90;;
13927;SDS011;7036;50.834;4.718;2022-07-06T01:13:27;1.20;;;1.10;;
13927;SDS011;7036;50.834;4.718;2022-07-06T01:15:54;1.57;;;0.90;;
13927;SDS011;7036;50.834;4.718;2022-07-06T01:18:21;4.10;;;0.90;;
13927;SDS011;7036;50.834;4.718;2022-07-06T01:20:48;3.50;;;0.90;;
13927;SDS011;7036;50.834;4.718;2022-07-06T01:23:15;1.17;;;1.07;;
13927;SDS011;7036;50.834;4.718;2022-07-06T01:25:42;0.80;;;0.80;;
13927;SDS011;7036;50.834;4.718;2022-07-06T01:28:09;1.33;;;0.70;;
13927;SDS011;7036;50.834;4.718;2022-07-06T01:30:35;1.13;;;0.93;;
13927;SDS011;7036;50.834;4.718;2022-07-06T01:33:02;0.80;;;0.70;;
13927;SDS011;7036;50.834;4.718;2022-07-06T01:35:29;2.23;;;1.20;;
13927;SDS011;7036;50.834;4.718;2022-07-06T01:37:56;2.37;;;0.93;;
13927;SDS011;7036;50.834;4.718;2022-07-06T01:40:23;2.70;;;0.93;;
13927;SDS011;7036;50.834;4.718;2022-07-06T01:42:51;1.90;;;1.07;;
13927;SDS011;7036;50.834;4.718;2022-07-06T01:45:18;3.83;;;0.83;;
13927;SDS011;7036;50.834;4.718;2022-07-06T01:47:45;2.47;;;0.97;;
13927;SDS011;7036;50.834;4.718;2022-07-06T01:50:12;1.10;;;0.80;;
13927;SDS011;7036;50.834;4.718;2022-07-06T01:52:39;1.17;;;0.80;;
13927;SDS011;7036;50.834;4.718;2022-07-06T01:55:06;1.70;;;1.00;;
13927;SDS011;7036;50.834;4.718;2022-07-06T01:57:33;1.13;;;0.70;;
13927;SDS011;7036;50.834;4.718;2022-07-06T01:59:59;1.77;;;1.03;;
13927;SDS011;7036;50.834;4.718;2022-07-06T02:02:26;2.60;;;0.97;;
13927;SDS011;7036;50.834;4.718;2022-07-06T02:04:53;1.77;;;0.93;;
13927;SDS011;7036;50.834;4.718;2022-07-06T02:07:20;1.00;;;0.70;;
13927;SDS011;7036;50.834;4.718;2022-07-06T02:09:47;1.80;;;0.90;;
13927;SDS011;7036;50.834;4.718;2022-07-06T02:12:14;1.50;;;0.90;;
13927;SDS011;7036;50.834;4.718;2022-07-06T02:14:41;2.00;;;1.23;;
13927;SDS011;7036;50.834;4.718;2022-07-06T02:17:08;4.27;;;0.90;;
13927;SDS011;7036;50.834;4.718;2022-07-06T02:19:35;1.30;;;1.13;;
13927;SDS011;7036;50.834;4.718;2022-07-06T02:22:02;1.77;;;1.00;;
13927;SDS011;7036;50.834;4.718;2022-07-06T02:24:29;0.90;;;0.80;;
13927;SDS011;7036;50.834;4.718;2022-07-06T02:26:56;3.90;;;0.90;;
13927;SDS011;7036;50.834;4.718;2022-07-06T02:29:23;1.90;;;0.90;;
13927;SDS011;7036;50.834;4.718;2022-07-06T02:31:50;4.00;;;1.37;;
13927;SDS011;7036;50.834;4.718;2022-07-06T02:34:17;1.90;;;0.97;;
13927;SDS011;7036;50.834;4.718;2022-07-06T02:36:44;1.67;;;0.87;;
13927;SDS011;7036;50.834;4.718;2022-07-06T02:39:11;1.73;;;1.17;;
13927;SDS011;7036;50.834;4.718;2022-07-06T02:41:38;1.80;;;1.10;;
13927;SDS011;7036;50.834;4.718;2022-07-06T02:44:05;1.97;;;0.90;;
13927;SDS011;7036;50.834;4.718;2022-07-06T02:46:32;1.90;;;0.97;;
13927;SDS011;7036;50.834;4.718;2022-07-06T02:48:59;1.90;;;0.97;;
13927;SDS011;7036;50.834;4.718;2022-07-06T02:51:26;2.10;;;1.13;;
13927;SDS011;7036;50.834;4.718;2022-07-06T02:53:53;4.37;;;1.30;;
13927;SDS011;7036;50.834;4.718;2022-07-06T02:56:20;2.03;;;0.93;;
13927;SDS011;7036;50.834;4.718;2022-07-06T02:58:46;1.03;;;0.73;;
13927;SDS011;7036;50.834;4.718;2022-07-06T03:01:13;2.23;;;1.20;;
13927;SDS011;7036;50.834;4.718;2022-07-06T03:03:40;1.97;;;1.00;;
13927;SDS011;7036;50.834;4.718;2022-07-06T03:06:07;1.07;;;1.03;;
13927;SDS011;7036;50.834;4.718;2022-07-06T03:08:34;4.00;;;1.10;;
13927;SDS011;7036;50.834;4.718;2022-07-06T03:11:01;2.93;;;0.97;;
13927;SDS011;7036;50.834;4.718;2022-07-06T03:13:29;2.55;;;1.00;;
13927;SDS011;7036;50.834;4.718;2022-07-06T03:15:56;2.70;;;0.80;;
13927;SDS011;7036;50.834;4.718;2022-07-06T03:18:23;1.93;;;1.20;;
13927;SDS011;7036;50.834;4.718;2022-07-06T03:20:49;1.60;;;0.90;;
13927;SDS011;7036;50.834;4.718;2022-07-06T03:23:17;5.03;;;1.40;;
13927;SDS011;7036;50.834;4.718;2022-07-06T03:25:43;4.20;;;1.10;;
13927;SDS011;7036;50.834;4.718;2022-07-06T03:28:10;0.90;;;0.90;;
13927;SDS011;7036;50.834;4.718;2022-07-06T03:30:37;1.97;;;0.90;;
13927;SDS011;7036;50.834;4.718;2022-07-06T03:33:05;1.77;;;0.90;;
13927;SDS011;7036;50.834;4.718;2022-07-06T03:35:32;2.43;;;0.93;;
13927;SDS011;7036;50.834;4.718;2022-07-06T03:37:58;1.20;;;0.97;;
13927;SDS011;7036;50.834;4.718;2022-07-06T03:40:25;1.17;;;0.73;;
13927;SDS011;7036;50.834;4.718;2022-07-06T03:42:52;1.87;;;0.97;;
13927;SDS011;7036;50.834;4.718;2022-07-06T03:45:19;2.30;;;0.80;;
13927;SDS011;7036;50.834;4.718;2022-07-06T03:47:46;2.37;;;1.37;;
13927;SDS011;7036;50.834;4.718;2022-07-06T03:50:14;1.20;;;0.80;;
13927;SDS011;7036;50.834;4.718;2022-07-06T03:52:41;1.77;;;0.90;;
13927;SDS011;7036;50.834;4.718;2022-07-06T03:55:09;2.93;;;1.00;;
13927;SDS011;7036;50.834;4.718;2022-07-06T03:57:35;2.30;;;1.00;;
13927;SDS011;7036;50.834;4.718;2022-07-06T04:00:03;1.73;;;0.70;;
13927;SDS011;7036;50.834;4.718;2022-07-06T04:02:29;2.00;;;1.00;;
13927;SDS011;7036;50.834;4.718;2022-07-06T04:04:56;3.53;;;1.03;;
13927;SDS011;7036;50.834;4.718;2022-07-06T04:07:24;1.57;;;0.97;;
13927;SDS011;7036;50.834;4.718;2022-07-06T04:09:50;4.03;;;0.93;;
13927;SDS011;7036;50.834;4.718;2022-07-06T04:12:17;1.10;;;0.97;;
13927;SDS011;7036;50.834;4.718;2022-07-06T04:14:43;1.43;;;0.80;;
13927;SDS011;7036;50.834;4.718;2022-07-06T04:17:10;1.60;;;1.03;;
13927;SDS011;7036;50.834;4.718;2022-07-06T04:19:55;1.13;;;0.80;;
13927;SDS011;7036;50.834;4.718;2022-07-06T04:22:23;1.37;;;1.27;;
13927;SDS011;7036;50.834;4.718;2022-07-06T04:24:49;1.23;;;1.10;;
13927;SDS011;7036;50.834;4.718;2022-07-06T04:27:16;0.67;;;0.60;;
13927;SDS011;7036;50.834;4.718;2022-07-06T04:29:43;1.93;;;0.90;;
13927;SDS011;7036;50.834;4.718;2022-07-06T04:32:10;1.77;;;1.03;;
13927;SDS011;7036;50.834;4.718;2022-07-06T04:34:37;1.20;;;0.90;;
13927;SDS011;7036;50.834;4.718;2022-07-06T04:37:04;1.90;;;1.00;;
13927;SDS011;7036;50.834;4.718;2022-07-06T04:39:31;2.03;;;0.70;;
13927;SDS011;7036;50.834;4.718;2022-07-06T04:41:58;1.60;;;0.93;;
13927;SDS011;7036;50.834;4.718;2022-07-06T04:44:25;2.73;;;0.83;;
13927;SDS011;7036;50.834;4.718;2022-07-06T04:46:52;1.17;;;0.90;;
13927;SDS011;7036;50.834;4.718;2022-07-06T04:49:19;1.03;;;0.93;;
13927;SDS011;7036;50.834;4.718;2022-07-06T04:51:46;0.90;;;0.90;;
13927;SDS011;7036;50.834;4.718;2022-07-06T04:54:14;1.80;;;1.27;;
13927;SDS011;7036;50.834;4.718;2022-07-06T04:56:40;2.40;;;1.00;;
13927;SDS011;7036;50.834;4.718;2022-07-06T04:59:07;1.37;;;0.80;;
13927;SDS011;7036;50.834;4.718;2022-07-06T05:01:34;1.40;;;1.03;;
13927;SDS011;7036;50.834;4.718;2022-07-06T05:04:02;2.67;;;1.30;;
13927;SDS011;7036;50.834;4.718;2022-07-06T05:06:29;1.80;;;1.20;;
13927;SDS011;7036;50.834;4.718;2022-07-06T05:08:56;2.53;;;1.20;;
13927;SDS011;7036;50.834;4.718;2022-07-06T05:11:23;1.10;;;0.80;;
13927;SDS011;7036;50.834;4.718;2022-07-06T05:13:49;1.60;;;1.00;;
13927;SDS011;7036;50.834;4.718;2022-07-06T05:16:16;1.93;;;1.00;;
13927;SDS011;7036;50.834;4.718;2022-07-06T05:18:43;1.83;;;1.20;;
13927;SDS011;7036;50.834;4.718;2022-07-06T05:21:10;1.23;;;0.93;;
13927;SDS011;7036;50.834;4.718;2022-07-06T05:23:37;1.40;;;1.03;;
13927;SDS011;7036;50.834;4.718;2022-07-06T05:26:04;0.80;;;0.80;;
13927;SDS011;7036;50.834;4.718;2022-07-06T05:28:31;1.10;;;0.70;;
13927;SDS011;7036;50.834;4.718;2022-07-06T05:30:59;1.60;;;1.00;;
13927;SDS011;7036;50.834;4.718;2022-07-06T05:33:27;1.53;;;0.90;;
13927;SDS011;7036;50.834;4.718;2022-07-06T05:35:52;5.77;;;1.10;;
13927;SDS011;7036;50.834;4.718;2022-07-06T05:38:20;4.20;;;1.20;;
13927;SDS011;7036;50.834;4.718;2022-07-06T05:40:46;4.13;;;1.40;;
13927;SDS011;7036;50.834;4.718;2022-07-06T05:43:14;1.47;;;1.00;;
13927;SDS011;7036;50.834;4.718;2022-07-06T05:45:40;2.43;;;1.03;;
13927;SDS011;7036;50.834;4.718;2022-07-06T05:48:07;3.50;;;1.13;;
13927;SDS011;7036;50.834;4.718;2022-07-06T05:50:52;8.50;;;1.43;;
13927;SDS011;7036;50.834;4.718;2022-07-06T05:53:19;2.90;;;0.80;;
13927;SDS011;7036;50.834;4.718;2022-07-06T05:55:46;1.23;;;0.83;;
13927;SDS011;7036;50.834;4.718;2022-07-06T05:58:13;3.57;;;1.10;;
13927;SDS011;7036;50.834;4.718;2022-07-06T06:00:40;1.90;;;1.10;;
13927;SDS011;7036;50.834;4.718;2022-07-06T06:03:07;11.65;;;1.50;;
13927;SDS011;7036;50.834;4.718;2022-07-06T06:05:34;7.97;;;1.40;;
13927;SDS011;7036;50.834;4.718;2022-07-06T06:08:01;7.43;;;1.30;;
13927;SDS011;7036;50.834;4.718;2022-07-06T06:10:28;5.20;;;1.43;;
13927;SDS011;7036;50.834;4.718;2022-07-06T06:12:55;4.97;;;1.30;;
13927;SDS011;7036;50.834;4.718;2022-07-06T06:15:22;6.43;;;1.90;;
13927;SDS011;7036;50.834;4.718;2022-07-06T06:17:49;3.83;;;1.57;;
13927;SDS011;7036;50.834;4.718;2022-07-06T06:20:16;3.07;;;1.17;;
13927;SDS011;7036;50.834;4.718;2022-07-06T06:22:53;4.47;;;1.20;;
13927;SDS011;7036;50.834;4.718;2022-07-06T06:25:20;5.93;;;1.83;;
13927;SDS011;7036;50.834;4.718;2022-07-06T06:27:46;2.93;;;1.50;;
13927;SDS011;7036;50.834;4.718;2022-07-06T06:30:13;3.53;;;1.33;;
13927;SDS011;7036;50.834;4.718;2022-07-06T06:32:40;8.67;;;1.20;;
13927;SDS011;7036;50.834;4.718;2022-07-06T06:35:07;4.87;;;1.10;;
13927;SDS011;7036;50.834;4.718;2022-07-06T06:37:35;3.23;;;1.33;;
13927;SDS011;7036;50.834;4.718;2022-07-06T06:40:02;4.73;;;1.30;;
13927;SDS011;7036;50.834;4.718;2022-07-06T06:42:28;2.37;;;1.07;;
13927;SDS011;7036;50.834;4.718;2022-07-06T06:44:55;2.93;;;1.20;;
13927;SDS011;7036;50.834;4.718;2022-07-06T06:47:22;1.53;;;1.23;;
13927;SDS011;7036;50.834;4.718;2022-07-06T06:49:49;4.77;;;1.50;;
13927;SDS011;7036;50.834;4.718;2022-07-06T06:52:17;6.85;;;1.60;;
13927;SDS011;7036;50.834;4.718;2022-07-06T06:54:44;7.53;;;1.50;;
13927;SDS011;7036;50.834;4.718;2022-07-06T06:57:11;5.00;;;1.73;;
13927;SDS011;7036;50.834;4.718;2022-07-06T06:59:38;7.93;;;1.50;;
13927;SDS011;7036;50.834;4.718;2022-07-06T07:02:05;4.60;;;1.67;;
13927;SDS011;7036;50.834;4.718;2022-07-06T07:04:32;13.27;;;2.27;;
13927;SDS011;7036;50.834;4.718;2022-07-06T07:06:59;9.83;;;1.70;;
13927;SDS011;7036;50.834;4.718;2022-07-06T07:09:26;9.50;;;1.87;;
13927;SDS011;7036;50.834;4.718;2022-07-06T07:11:53;9.57;;;2.13;;
13927;SDS011;7036;50.834;4.718;2022-07-06T07:14:20;7.77;;;1.73;;
13927;SDS011;7036;50.834;4.718;2022-07-06T07:16:47;10.68;;;1.83;;
13927;SDS011;7036;50.834;4.718;2022-07-06T07:19:14;14.32;;;2.30;;
13927;SDS011;7036;50.834;4.718;2022-07-06T07:21:42;13.00;;;2.60;;
13927;SDS011;7036;50.834;4.718;2022-07-06T07:24:08;19.13;;;3.43;;
13927;SDS011;7036;50.834;4.718;2022-07-06T07:26:36;18.70;;;3.33;;
13927;SDS011;7036;50.834;4.718;2022-07-06T07:29:02;11.20;;;2.00;;
13927;SDS011;7036;50.834;4.718;2022-07-06T07:31:29;11.15;;;2.92;;
13927;SDS011;7036;50.834;4.718;2022-07-06T07:33:57;9.45;;;2.28;;
13927;SDS011;7036;50.834;4.718;2022-07-06T07:36:24;17.13;;;2.23;;
13927;SDS011;7036;50.834;4.718;2022-07-06T07:38:51;10.85;;;1.80;;
13927;SDS011;7036;50.834;4.718;2022-07-06T07:41:18;9.60;;;1.83;;
13927;SDS011;7036;50.834;4.718;2022-07-06T07:43:45;9.10;;;2.43;;
13927;SDS011;7036;50.834;4.718;2022-07-06T07:46:11;8.53;;;1.77;;
13927;SDS011;7036;50.834;4.718;2022-07-06T07:48:38;6.10;;;1.90;;
13927;SDS011;7036;50.834;4.718;2022-07-06T07:51:06;10.32;;;1.70;;
13927;SDS011;7036;50.834;4.718;2022-07-06T07:53:32;9.93;;;2.03;;
13927;SDS011;7036;50.834;4.718;2022-07-06T07:55:59;4.43;;;1.37;;
13927;SDS011;7036;50.834;4.718;2022-07-06T07:58:26;9.40;;;1.77;;
13927;SDS011;7036;50.834;4.718;2022-07-06T08:00:53;7.03;;;1.50;;
13927;SDS011;7036;50.834;4.718;2022-07-06T08:03:20;7.73;;;1.90;;
13927;SDS011;7036;50.834;4.718;2022-07-06T08:05:47;11.93;;;1.97;;
13927;SDS011;7036;50.834;4.718;2022-07-06T08:08:14;6.00;;;1.70;;
13927;SDS011;7036;50.834;4.718;2022-07-06T08:10:41;8.33;;;1.67;;
13927;SDS011;7036;50.834;4.718;2022-07-06T08:13:08;7.27;;;2.00;;
13927;SDS011;7036;50.834;4.718;2022-07-06T08:15:35;4.67;;;1.77;;
13927;SDS011;7036;50.834;4.718;2022-07-06T08:18:02;4.00;;;1.67;;
13927;SDS011;7036;50.834;4.718;2022-07-06T08:20:29;3.63;;;1.40;;
13927;SDS011;7036;50.834;4.718;2022-07-06T08:22:56;6.50;;;2.00;;
13927;SDS011;7036;50.834;4.718;2022-07-06T08:25:24;10.93;;;2.03;;
13927;SDS011;7036;50.834;4.718;2022-07-06T08:27:51;9.47;;;2.03;;
13927;SDS011;7036;50.834;4.718;2022-07-06T08:30:18;8.47;;;1.60;;
13927;SDS011;7036;50.834;4.718;2022-07-06T08:32:45;13.77;;;2.53;;
13927;SDS011;7036;50.834;4.718;2022-07-06T08:35:12;3.70;;;1.77;;
13927;SDS011;7036;50.834;4.718;2022-07-06T08:37:38;7.00;;;1.30;;
13927;SDS011;7036;50.834;4.718;2022-07-06T08:40:06;4.73;;;1.73;;
13927;SDS011;7036;50.834;4.718;2022-07-06T08:42:33;6.07;;;1.97;;
13927;SDS011;7036;50.834;4.718;2022-07-06T08:45:01;5.97;;;2.00;;
13927;SDS011;7036;50.834;4.718;2022-07-06T08:47:27;5.73;;;2.00;;
13927;SDS011;7036;50.834;4.718;2022-07-06T08:49:54;5.83;;;1.83;;
13927;SDS011;7036;50.834;4.718;2022-07-06T08:52:21;8.67;;;2.63;;
13927;SDS011;7036;50.834;4.718;2022-07-06T08:54:49;6.60;;;2.23;;
13927;SDS011;7036;50.834;4.718;2022-07-06T08:57:15;7.37;;;3.30;;
13927;SDS011;7036;50.834;4.718;2022-07-06T08:59:42;6.37;;;2.03;;
13927;SDS011;7036;50.834;4.718;2022-07-06T09:02:10;4.63;;;2.13;;
13927;SDS011;7036;50.834;4.718;2022-07-06T09:04:37;3.80;;;1.83;;
13927;SDS011;7036;50.834;4.718;2022-07-06T09:07:04;6.00;;;1.80;;
13927;SDS011;7036;50.834;4.718;2022-07-06T09:09:31;6.63;;;1.77;;
13927;SDS011;7036;50.834;4.718;2022-07-06T09:11:58;6.27;;;2.13;;
13927;SDS011;7036;50.834;4.718;2022-07-06T09:14:25;7.07;;;1.97;;
13927;SDS011;7036;50.834;4.718;2022-07-06T09:17:00;7.20;;;1.90;;
13927;SDS011;7036;50.834;4.718;2022-07-06T09:19:20;10.40;;;2.40;;
13927;SDS011;7036;50.834;4.718;2022-07-06T09:21:47;9.03;;;2.10;;
13927;SDS011;7036;50.834;4.718;2022-07-06T09:24:14;11.25;;;2.05;;
13927;SDS011;7036;50.834;4.718;2022-07-06T09:26:42;10.90;;;1.70;;
13927;SDS011;7036;50.834;4.718;2022-07-06T09:29:08;5.67;;;1.70;;
13927;SDS011;7036;50.834;4.718;2022-07-06T09:31:35;8.57;;;2.70;;
13927;SDS011;7036;50.834;4.718;2022-07-06T09:34:06;9.60;;;2.27;;
13927;SDS011;7036;50.834;4.718;2022-07-06T09:36:45;4.43;;;1.87;;
13927;SDS011;7036;50.834;4.718;2022-07-06T09:39:18;3.90;;;1.67;;
13927;SDS011;7036;50.834;4.718;2022-07-06T09:41:47;5.87;;;2.00;;
13927;SDS011;7036;50.834;4.718;2022-07-06T09:44:17;6.20;;;2.07;;
13927;SDS011;7036;50.834;4.718;2022-07-06T09:46:41;9.57;;;1.83;;
13927;SDS011;7036;50.834;4.718;2022-07-06T09:49:07;7.17;;;2.13;;
13927;SDS011;7036;50.834;4.718;2022-07-06T09:51:35;7.73;;;2.43;;
13927;SDS011;7036;50.834;4.718;2022-07-06T09:54:05;10.37;;;2.57;;
13927;SDS011;7036;50.834;4.718;2022-07-06T09:56:38;10.30;;;1.73;;
13927;SDS011;7036;50.834;4.718;2022-07-06T09:59:08;8.67;;;1.83;;
13927;SDS011;7036;50.834;4.718;2022-07-06T10:01:34;5.77;;;2.00;;
13927;SDS011;7036;50.834;4.718;2022-07-06T10:04:01;5.00;;;1.60;;
13927;SDS011;7036;50.834;4.718;2022-07-06T10:06:28;7.67;;;1.73;;
13927;SDS011;7036;50.834;4.718;2022-07-06T10:08:55;6.33;;;2.10;;
13927;SDS011;7036;50.834;4.718;2022-07-06T10:11:22;10.47;;;2.27;;
13927;SDS011;7036;50.834;4.718;2022-07-06T10:13:49;4.87;;;1.90;;
13927;SDS011;7036;50.834;4.718;2022-07-06T10:16:16;6.83;;;1.80;;
13927;SDS011;7036;50.834;4.718;2022-07-06T10:18:42;6.23;;;1.70;;
13927;SDS011;7036;50.834;4.718;2022-07-06T10:21:10;5.37;;;2.07;;
13927;SDS011;7036;50.834;4.718;2022-07-06T10:23:36;4.10;;;1.77;;
13927;SDS011;7036;50.834;4.718;2022-07-06T10:26:03;4.67;;;1.87;;
13927;SDS011;7036;50.834;4.718;2022-07-06T10:28:30;4.30;;;1.30;;
13927;SDS011;7036;50.834;4.718;2022-07-06T10:30:57;6.87;;;1.63;;
13927;SDS011;7036;50.834;4.718;2022-07-06T10:33:24;9.10;;;1.87;;
13927;SDS011;7036;50.834;4.718;2022-07-06T10:35:51;3.77;;;1.70;;
13927;SDS011;7036;50.834;4.718;2022-07-06T10:38:18;3.60;;;1.50;;
13927;SDS011;7036;50.834;4.718;2022-07-06T10:40:45;6.40;;;1.83;;
13927;SDS011;7036;50.834;4.718;2022-07-06T10:43:43;5.63;;;1.67;;
13927;SDS011;7036;50.834;4.718;2022-07-06T10:46:15;12.13;;;2.20;;
13927;SDS011;7036;50.834;4.718;2022-07-06T10:48:41;6.30;;;2.10;;
13927;SDS011;7036;50.834;4.718;2022-07-06T10:51:08;6.10;;;2.60;;
13927;SDS011;7036;50.834;4.718;2022-07-06T10:53:39;7.60;;;2.37;;
13927;SDS011;7036;50.834;4.718;2022-07-06T10:56:07;8.93;;;1.80;;
13927;SDS011;7036;50.834;4.718;2022-07-06T10:58:36;5.70;;;1.87;;
13927;SDS011;7036;50.834;4.718;2022-07-06T11:01:01;5.40;;;1.80;;
13927;SDS011;7036;50.834;4.718;2022-07-06T11:06:08;6.20;;;1.70;;
13927;SDS011;7036;50.834;4.718;2022-07-06T11:08:44;7.43;;;2.20;;
13927;SDS011;7036;50.834;4.718;2022-07-06T11:11:13;4.73;;;1.53;;
13927;SDS011;7036;50.834;4.718;2022-07-06T11:13:43;4.50;;;1.83;;
13927;SDS011;7036;50.834;4.718;2022-07-06T11:16:15;7.83;;;2.13;;
13927;SDS011;7036;50.834;4.718;2022-07-06T11:18:48;6.60;;;2.03;;
13927;SDS011;7036;50.834;4.718;2022-07-06T11:21:18;8.10;;;1.93;;
13927;SDS011;7036;50.834;4.718;2022-07-06T11:23:48;6.27;;;1.60;;
13927;SDS011;7036;50.834;4.718;2022-07-06T11:26:15;4.83;;;1.80;;
13927;SDS011;7036;50.834;4.718;2022-07-06T11:28:41;7.83;;;2.07;;
13927;SDS011;7036;50.834;4.718;2022-07-06T11:31:08;3.70;;;1.63;;
13927;SDS011;7036;50.834;4.718;2022-07-06T11:33:35;7.47;;;2.30;;
13927;SDS011;7036;50.834;4.718;2022-07-06T11:36:14;6.70;;;1.70;;
13927;SDS011;7036;50.834;4.718;2022-07-06T11:38:37;9.57;;;1.60;;
13927;SDS011;7036;50.834;4.718;2022-07-06T11:41:04;6.27;;;2.07;;
13927;SDS011;7036;50.834;4.718;2022-07-06T11:43:32;3.33;;;2.03;;
13927;SDS011;7036;50.834;4.718;2022-07-06T11:45:59;6.30;;;1.60;;
13927;SDS011;7036;50.834;4.718;2022-07-06T11:48:26;7.13;;;1.47;;
13927;SDS011;7036;50.834;4.718;2022-07-06T11:50:59;5.30;;;1.77;;
13927;SDS011;7036;50.834;4.718;2022-07-06T11:53:25;3.43;;;1.50;;
13927;SDS011;7036;50.834;4.718;2022-07-06T11:55:52;6.80;;;1.97;;
13927;SDS011;7036;50.834;4.718;2022-07-06T11:58:23;3.23;;;1.27;;
13927;SDS011;7036;50.834;4.718;2022-07-06T12:03:31;5.90;;;1.47;;
13927;SDS011;7036;50.834;4.718;2022-07-06T12:05:58;8.43;;;1.40;;
13927;SDS011;7036;50.834;4.718;2022-07-06T12:08:25;4.50;;;1.23;;
13927;SDS011;7036;50.834;4.718;2022-07-06T12:10:52;2.97;;;1.63;;
13927;SDS011;7036;50.834;4.718;2022-07-06T12:13:19;7.10;;;1.53;;
13927;SDS011;7036;50.834;4.718;2022-07-06T12:15:46;7.07;;;1.30;;
13927;SDS011;7036;50.834;4.718;2022-07-06T12:18:13;3.40;;;1.37;;
13927;SDS011;7036;50.834;4.718;2022-07-06T12:20:40;8.87;;;1.83;;
13927;SDS011;7036;50.834;4.718;2022-07-06T12:23:07;2.77;;;1.33;;
13927;SDS011;7036;50.834;4.718;2022-07-06T12:25:34;3.77;;;1.30;;
13927;SDS011;7036;50.834;4.718;2022-07-06T12:28:00;3.70;;;1.30;;
13927;SDS011;7036;50.834;4.718;2022-07-06T12:30:28;5.83;;;1.60;;
13927;SDS011;7036;50.834;4.718;2022-07-06T12:33:13;4.37;;;1.53;;
13927;SDS011;7036;50.834;4.718;2022-07-06T12:35:39;2.10;;;1.20;;
13927;SDS011;7036;50.834;4.718;2022-07-06T12:38:06;2.27;;;1.10;;
13927;SDS011;7036;50.834;4.718;2022-07-06T12:40:35;5.40;;;1.17;;
13927;SDS011;7036;50.834;4.718;2022-07-06T12:43:00;1.07;;;0.97;;
13927;SDS011;7036;50.834;4.718;2022-07-06T12:45:27;5.33;;;1.80;;
13927;SDS011;7036;50.834;4.718;2022-07-06T12:48:01;2.23;;;1.10;;
13927;SDS011;7036;50.834;4.718;2022-07-06T12:50:37;4.00;;;1.37;;
13927;SDS011;7036;50.834;4.718;2022-07-06T12:53:03;6.77;;;1.20;;
13927;SDS011;7036;50.834;4.718;2022-07-06T12:55:30;3.87;;;1.23;;
13927;SDS011;7036;50.834;4.718;2022-07-06T12:57:57;3.43;;;1.10;;
13927;SDS011;7036;50.834;4.718;2022-07-06T13:00:24;2.17;;;0.93;;
13927;SDS011;7036;50.834;4.718;2022-07-06T13:02:52;4.73;;;1.60;;
13927;SDS011;7036;50.834;4.718;2022-07-06T13:05:24;4.20;;;1.17;;
13927;SDS011;7036;50.834;4.718;2022-07-06T13:07:53;3.33;;;1.13;;
13927;SDS011;7036;50.834;4.718;2022-07-06T13:10:20;2.10;;;1.47;;
13927;SDS011;7036;50.834;4.718;2022-07-06T13:12:47;2.83;;;1.30;;
13927;SDS011;7036;50.834;4.718;2022-07-06T13:15:14;3.43;;;1.60;;
13927;SDS011;7036;50.834;4.718;2022-07-06T13:17:42;1.60;;;1.20;;
13927;SDS011;7036;50.834;4.718;2022-07-06T13:20:09;2.77;;;1.03;;
13927;SDS011;7036;50.834;4.718;2022-07-06T13:22:36;5.87;;;1.10;;
13927;SDS011;7036;50.834;4.718;2022-07-06T13:25:02;1.30;;;1.10;;
13927;SDS011;7036;50.834;4.718;2022-07-06T13:27:29;3.73;;;1.30;;
13927;SDS011;7036;50.834;4.718;2022-07-06T13:29:56;2.23;;;1.50;;
13927;SDS011;7036;50.834;4.718;2022-07-06T13:32:23;3.37;;;1.40;;
13927;SDS011;7036;50.834;4.718;2022-07-06T13:34:51;4.53;;;1.23;;
13927;SDS011;7036;50.834;4.718;2022-07-06T13:37:18;1.20;;;1.10;;
13927;SDS011;7036;50.834;4.718;2022-07-06T13:39:44;4.03;;;1.23;;
13927;SDS011;7036;50.834;4.718;2022-07-06T13:42:11;2.50;;;1.37;;
13927;SDS011;7036;50.834;4.718;2022-07-06T13:44:38;2.97;;;1.40;;
13927;SDS011;7036;50.834;4.718;2022-07-06T13:47:05;3.97;;;1.30;;
13927;SDS011;7036;50.834;4.718;2022-07-06T13:49:32;1.60;;;0.80;;
13927;SDS011;7036;50.834;4.718;2022-07-06T13:51:59;2.53;;;1.37;;
13927;SDS011;7036;50.834;4.718;2022-07-06T13:54:26;3.07;;;1.33;;
13927;SDS011;7036;50.834;4.718;2022-07-06T13:56:53;3.73;;;1.30;;
13927;SDS011;7036;50.834;4.718;2022-07-06T13:59:19;1.67;;;1.00;;
13927;SDS011;7036;50.834;4.718;2022-07-06T14:01:46;5.57;;;1.17;;
13927;SDS011;7036;50.834;4.718;2022-07-06T14:04:13;7.40;;;1.37;;
13927;SDS011;7036;50.834;4.718;2022-07-06T14:06:40;4.87;;;1.17;;
13927;SDS011;7036;50.834;4.718;2022-07-06T14:09:07;2.10;;;1.10;;
13927;SDS011;7036;50.834;4.718;2022-07-06T14:11:34;5.20;;;1.30;;
13927;SDS011;7036;50.834;4.718;2022-07-06T14:14:01;4.67;;;1.37;;
13927;SDS011;7036;50.834;4.718;2022-07-06T14:16:28;1.90;;;1.07;;
13927;SDS011;7036;50.834;4.718;2022-07-06T14:18:55;3.93;;;1.47;;
13927;SDS011;7036;50.834;4.718;2022-07-06T14:21:23;4.03;;;1.50;;
13927;SDS011;7036;50.834;4.718;2022-07-06T14:23:49;2.30;;;1.10;;
13927;SDS011;7036;50.834;4.718;2022-07-06T14:26:16;1.90;;;1.03;;
13927;SDS011;7036;50.834;4.718;2022-07-06T14:28:43;2.30;;;1.07;;
13927;SDS011;7036;50.834;4.718;2022-07-06T14:31:10;3.93;;;1.57;;
13927;SDS011;7036;50.834;4.718;2022-07-06T14:33:37;2.27;;;1.40;;
13927;SDS011;7036;50.834;4.718;2022-07-06T14:36:04;1.43;;;1.00;;
13927;SDS011;7036;50.834;4.718;2022-07-06T14:38:31;3.03;;;1.30;;
13927;SDS011;7036;50.834;4.718;2022-07-06T14:40:58;1.47;;;1.20;;
13927;SDS011;7036;50.834;4.718;2022-07-06T14:43:25;4.60;;;0.93;;
13927;SDS011;7036;50.834;4.718;2022-07-06T14:45:52;1.40;;;0.87;;
13927;SDS011;7036;50.834;4.718;2022-07-06T14:48:18;1.80;;;1.33;;
13927;SDS011;7036;50.834;4.718;2022-07-06T14:50:45;1.63;;;1.03;;
13927;SDS011;7036;50.834;4.718;2022-07-06T14:53:12;1.53;;;1.00;;
13927;SDS011;7036;50.834;4.718;2022-07-06T14:55:40;2.33;;;0.73;;
13927;SDS011;7036;50.834;4.718;2022-07-06T14:58:07;2.73;;;1.13;;
13927;SDS011;7036;50.834;4.718;2022-07-06T15:00:34;1.97;;;1.17;;
13927;SDS011;7036;50.834;4.718;2022-07-06T15:03:00;1.80;;;1.00;;
13927;SDS011;7036;50.834;4.718;2022-07-06T15:05:27;3.17;;;1.13;;
13927;SDS011;7036;50.834;4.718;2022-07-06T15:07:54;1.17;;;0.87;;